<?xml version="1.0" encoding="UTF-8" standalone="no" ?>
<gpx xmlns="http://www.topografix.com/GPX/1/1" xmlns:xsi="http://www.w3.org/2001/XMLSchema-instance" xsi:schemaLocation="http://www.topografix.com/GPX/1/1 http://www.topografix.com/GPX/1/1/gpx.xsd" version="1.1" creator="VisuGPX - https://www.visugpx.com">
  <metadata>
    <name>Transcaucasie: Géorgie + Arménie</name>
  </metadata>
  <trk>
    <name><![CDATA[Tour d'Europe: étape 481]]></name>
    <extensions>
      <line xmlns="http://www.topografix.com/GPX/gpx_style/0/2">
        <color>008888</color>
        <width>4</width>
      </line>
    </extensions>
    <trkseg>
      <trkpt lat="40.59696" lon="45.35595">
        <ele>1863.356713</ele>
        <time>2021-10-22T06:21:52.231Z</time>
      </trkpt>
      <trkpt lat="40.59706" lon="45.35719">
        <ele>1862.972814</ele>
        <time>2021-10-22T06:22:22.235Z</time>
      </trkpt>
      <trkpt lat="40.59591" lon="45.35682">
        <ele>1855.137376</ele>
        <time>2021-10-22T06:25:10.239Z</time>
      </trkpt>
      <trkpt lat="40.59408" lon="45.35576">
        <ele>1855.623938</ele>
        <time>2021-10-22T06:26:16.226Z</time>
      </trkpt>
      <trkpt lat="40.59214" lon="45.35469">
        <ele>1860.501918</ele>
        <time>2021-10-22T06:27:35.232Z</time>
      </trkpt>
      <trkpt lat="40.59026" lon="45.35353">
        <ele>1863.734586</ele>
        <time>2021-10-22T06:28:53.230Z</time>
      </trkpt>
      <trkpt lat="40.58827" lon="45.35254">
        <ele>1867.056105</ele>
        <time>2021-10-22T06:30:12.246Z</time>
      </trkpt>
      <trkpt lat="40.58649" lon="45.35122">
        <ele>1874.29916</ele>
        <time>2021-10-22T06:31:44.255Z</time>
      </trkpt>
      <trkpt lat="40.58478" lon="45.34985">
        <ele>1881.841132</ele>
        <time>2021-10-22T06:33:27.247Z</time>
      </trkpt>
      <trkpt lat="40.58308" lon="45.34862">
        <ele>1894.63326</ele>
        <time>2021-10-22T06:35:34.237Z</time>
      </trkpt>
      <trkpt lat="40.58161" lon="45.34694">
        <ele>1901.595699</ele>
        <time>2021-10-22T06:37:29.253Z</time>
      </trkpt>
      <trkpt lat="40.58039" lon="45.34474">
        <ele>1905.635129</ele>
        <time>2021-10-22T06:41:20.288Z</time>
      </trkpt>
      <trkpt lat="40.57934" lon="45.34247">
        <ele>1911.981035</ele>
        <time>2021-10-22T06:42:58.238Z</time>
      </trkpt>
      <trkpt lat="40.57834" lon="45.34013">
        <ele>1916.166049</ele>
        <time>2021-10-22T06:44:25.292Z</time>
      </trkpt>
      <trkpt lat="40.57722" lon="45.33779">
        <ele>1913.856992</ele>
        <time>2021-10-22T06:45:25.257Z</time>
      </trkpt>
      <trkpt lat="40.57575" lon="45.33604">
        <ele>1921.740953</ele>
        <time>2021-10-22T06:47:05.262Z</time>
      </trkpt>
      <trkpt lat="40.57429" lon="45.33429">
        <ele>1932.536116</ele>
        <time>2021-10-22T06:48:55.252Z</time>
      </trkpt>
      <trkpt lat="40.57328" lon="45.33204">
        <ele>1941.728858</ele>
        <time>2021-10-22T06:50:40.239Z</time>
      </trkpt>
      <trkpt lat="40.57231" lon="45.32974">
        <ele>1952.412426</ele>
        <time>2021-10-22T06:52:49.286Z</time>
      </trkpt>
      <trkpt lat="40.57171" lon="45.32718">
        <ele>1968.846685</ele>
        <time>2021-10-22T06:55:34.254Z</time>
      </trkpt>
      <trkpt lat="40.57135" lon="45.32469">
        <ele>1981.24639</ele>
        <time>2021-10-22T06:58:02.232Z</time>
      </trkpt>
      <trkpt lat="40.57102" lon="45.32223">
        <ele>1996.307827</ele>
        <time>2021-10-22T07:00:53.241Z</time>
      </trkpt>
      <trkpt lat="40.57055" lon="45.31982">
        <ele>2015.046156</ele>
        <time>2021-10-22T07:03:59.237Z</time>
      </trkpt>
      <trkpt lat="40.56989" lon="45.31752">
        <ele>2038.139522</ele>
        <time>2021-10-22T07:07:08.249Z</time>
      </trkpt>
      <trkpt lat="40.56962" lon="45.31509">
        <ele>2062.718865</ele>
        <time>2021-10-22T07:10:07.249Z</time>
      </trkpt>
      <trkpt lat="40.56976" lon="45.31265">
        <ele>2079.331654</ele>
        <time>2021-10-22T07:13:06.247Z</time>
      </trkpt>
      <trkpt lat="40.56971" lon="45.31019">
        <ele>2091.638313</ele>
        <time>2021-10-22T07:15:56.262Z</time>
      </trkpt>
      <trkpt lat="40.56901" lon="45.30766">
        <ele>2092.674682</ele>
        <time>2021-10-22T07:24:14.243Z</time>
      </trkpt>
      <trkpt lat="40.5681" lon="45.30545">
        <ele>2109.528106</ele>
        <time>2021-10-22T07:26:55.266Z</time>
      </trkpt>
      <trkpt lat="40.56752" lon="45.3031">
        <ele>2125.577549</ele>
        <time>2021-10-22T07:29:45.273Z</time>
      </trkpt>
      <trkpt lat="40.56628" lon="45.30128">
        <ele>2138.68172</ele>
        <time>2021-10-22T07:32:41.247Z</time>
      </trkpt>
      <trkpt lat="40.56462" lon="45.30013">
        <ele>2159.029466</ele>
        <time>2021-10-22T07:35:38.242Z</time>
      </trkpt>
      <trkpt lat="40.5635" lon="45.29797">
        <ele>2177.977447</ele>
        <time>2021-10-22T07:38:52.237Z</time>
      </trkpt>
      <trkpt lat="40.56316" lon="45.29551">
        <ele>2189.319837</ele>
        <time>2021-10-22T07:41:31.293Z</time>
      </trkpt>
      <trkpt lat="40.563" lon="45.29269">
        <ele>2183.476312</ele>
        <time>2021-10-22T07:42:43.259Z</time>
      </trkpt>
      <trkpt lat="40.56351" lon="45.28935">
        <ele>2170.836179</ele>
        <time>2021-10-22T07:43:23.260Z</time>
      </trkpt>
      <trkpt lat="40.56403" lon="45.28598">
        <ele>2150.466289</ele>
        <time>2021-10-22T07:44:03.262Z</time>
      </trkpt>
      <trkpt lat="40.56315" lon="45.28286">
        <ele>2127.741771</ele>
        <time>2021-10-22T07:47:44.256Z</time>
      </trkpt>
      <trkpt lat="40.56124" lon="45.28103">
        <ele>2118.441646</ele>
        <time>2021-10-22T07:48:32.311Z</time>
      </trkpt>
      <trkpt lat="40.55937" lon="45.27946">
        <ele>2112.336719</ele>
        <time>2021-10-22T07:49:12.260Z</time>
      </trkpt>
      <trkpt lat="40.55746" lon="45.27793">
        <ele>2101.722943</ele>
        <time>2021-10-22T07:49:52.270Z</time>
      </trkpt>
      <trkpt lat="40.55538" lon="45.2763">
        <ele>2090.190244</ele>
        <time>2021-10-22T07:50:35.262Z</time>
      </trkpt>
      <trkpt lat="40.55361" lon="45.27496">
        <ele>2096.45767</ele>
        <time>2021-10-22T07:52:01.260Z</time>
      </trkpt>
      <trkpt lat="40.55189" lon="45.27368">
        <ele>2105.269612</ele>
        <time>2021-10-22T07:53:49.259Z</time>
      </trkpt>
      <trkpt lat="40.55003" lon="45.27246">
        <ele>2111.793377</ele>
        <time>2021-10-22T07:55:17.259Z</time>
      </trkpt>
      <trkpt lat="40.54751" lon="45.27201">
        <ele>2114.195767</ele>
        <time>2021-10-22T07:56:03.265Z</time>
      </trkpt>
      <trkpt lat="40.54567" lon="45.27074">
        <ele>2107.05573</ele>
        <time>2021-10-22T07:57:06.265Z</time>
      </trkpt>
      <trkpt lat="40.54311" lon="45.26912">
        <ele>2089.042062</ele>
        <time>2021-10-22T07:57:46.279Z</time>
      </trkpt>
      <trkpt lat="40.54119" lon="45.26723">
        <ele>2072.466923</ele>
        <time>2021-10-22T07:58:27.296Z</time>
      </trkpt>
      <trkpt lat="40.54093" lon="45.26446">
        <ele>2062.543427</ele>
        <time>2021-10-22T07:59:07.281Z</time>
      </trkpt>
      <trkpt lat="40.54072" lon="45.26154">
        <ele>2054.210092</ele>
        <time>2021-10-22T07:59:48.250Z</time>
      </trkpt>
      <trkpt lat="40.54013" lon="45.25869">
        <ele>2046.787673</ele>
        <time>2021-10-22T08:00:34.273Z</time>
      </trkpt>
      <trkpt lat="40.53913" lon="45.25562">
        <ele>2037.845738</ele>
        <time>2021-10-22T08:01:14.257Z</time>
      </trkpt>
      <trkpt lat="40.53751" lon="45.2525">
        <ele>2024.171959</ele>
        <time>2021-10-22T08:01:54.247Z</time>
      </trkpt>
      <trkpt lat="40.53678" lon="45.24968">
        <ele>2011.606018</ele>
        <time>2021-10-22T08:02:35.257Z</time>
      </trkpt>
      <trkpt lat="40.53704" lon="45.24679">
        <ele>2008.674723</ele>
        <time>2021-10-22T08:03:15.251Z</time>
      </trkpt>
      <trkpt lat="40.53683" lon="45.24342">
        <ele>2007.836331</ele>
        <time>2021-10-22T08:04:03.260Z</time>
      </trkpt>
      <trkpt lat="40.53626" lon="45.24026">
        <ele>1996.820299</ele>
        <time>2021-10-22T08:04:43.239Z</time>
      </trkpt>
      <trkpt lat="40.53599" lon="45.23737">
        <ele>1986.339961</ele>
        <time>2021-10-22T08:05:24.268Z</time>
      </trkpt>
      <trkpt lat="40.53576" lon="45.23382">
        <ele>1971.198696</ele>
        <time>2021-10-22T08:06:04.246Z</time>
      </trkpt>
      <trkpt lat="40.53571" lon="45.23111">
        <ele>1965.037322</ele>
        <time>2021-10-22T08:06:44.244Z</time>
      </trkpt>
      <trkpt lat="40.53567" lon="45.22814">
        <ele>1956.681655</ele>
        <time>2021-10-22T08:07:26.261Z</time>
      </trkpt>
      <trkpt lat="40.53568" lon="45.22496">
        <ele>1947.851037</ele>
        <time>2021-10-22T08:08:06.247Z</time>
      </trkpt>
      <trkpt lat="40.53522" lon="45.22217">
        <ele>1937.332477</ele>
        <time>2021-10-22T08:08:49.266Z</time>
      </trkpt>
      <trkpt lat="40.53525" lon="45.21998">
        <ele>1932.505462</ele>
        <time>2021-10-22T08:09:44.239Z</time>
      </trkpt>
      <trkpt lat="40.53719" lon="45.21887">
        <ele>1937.042485</ele>
        <time>2021-10-22T08:10:44.253Z</time>
      </trkpt>
      <trkpt lat="40.53938" lon="45.21752">
        <ele>1935.121515</ele>
        <time>2021-10-22T08:11:44.260Z</time>
      </trkpt>
      <trkpt lat="40.54167" lon="45.21615">
        <ele>1933.259553</ele>
        <time>2021-10-22T08:12:44.272Z</time>
      </trkpt>
      <trkpt lat="40.5439" lon="45.2144">
        <ele>1933.400582</ele>
        <time>2021-10-22T08:13:47.263Z</time>
      </trkpt>
      <trkpt lat="40.54516" lon="45.21204">
        <ele>1935.983017</ele>
        <time>2021-10-22T08:14:47.265Z</time>
      </trkpt>
      <trkpt lat="40.54651" lon="45.21003">
        <ele>1937.447895</ele>
        <time>2021-10-22T08:16:00.261Z</time>
      </trkpt>
      <trkpt lat="40.54813" lon="45.20823">
        <ele>1934.540447</ele>
        <time>2021-10-22T08:16:52.260Z</time>
      </trkpt>
      <trkpt lat="40.54961" lon="45.2066">
        <ele>1931.098831</ele>
        <time>2021-10-22T08:17:32.259Z</time>
      </trkpt>
      <trkpt lat="40.55102" lon="45.20476">
        <ele>1929.330572</ele>
        <time>2021-10-22T08:18:12.251Z</time>
      </trkpt>
      <trkpt lat="40.5522" lon="45.20266">
        <ele>1931.945969</ele>
        <time>2021-10-22T08:18:53.259Z</time>
      </trkpt>
      <trkpt lat="40.55347" lon="45.20021">
        <ele>1934.004636</ele>
        <time>2021-10-22T08:19:44.254Z</time>
      </trkpt>
      <trkpt lat="40.55437" lon="45.19784">
        <ele>1935.240825</ele>
        <time>2021-10-22T08:20:26.251Z</time>
      </trkpt>
      <trkpt lat="40.55536" lon="45.1954">
        <ele>1936.950589</ele>
        <time>2021-10-22T08:21:17.254Z</time>
      </trkpt>
      <trkpt lat="40.55643" lon="45.19302">
        <ele>1936.871072</ele>
        <time>2021-10-22T08:22:04.254Z</time>
      </trkpt>
      <trkpt lat="40.55739" lon="45.19092">
        <ele>1935.123744</ele>
        <time>2021-10-22T08:22:44.279Z</time>
      </trkpt>
      <trkpt lat="40.55847" lon="45.18872">
        <ele>1933.046117</ele>
        <time>2021-10-22T08:23:28.250Z</time>
      </trkpt>
      <trkpt lat="40.55964" lon="45.18638">
        <ele>1931.231938</ele>
        <time>2021-10-22T08:24:12.244Z</time>
      </trkpt>
      <trkpt lat="40.56084" lon="45.18401">
        <ele>1930.037066</ele>
        <time>2021-10-22T08:24:52.250Z</time>
      </trkpt>
      <trkpt lat="40.56229" lon="45.18166">
        <ele>1931.065389</ele>
        <time>2021-10-22T08:25:44.283Z</time>
      </trkpt>
      <trkpt lat="40.56359" lon="45.17967">
        <ele>1929.486222</ele>
        <time>2021-10-22T08:26:24.261Z</time>
      </trkpt>
      <trkpt lat="40.56478" lon="45.17761">
        <ele>1930.727604</ele>
        <time>2021-10-22T08:27:05.256Z</time>
      </trkpt>
      <trkpt lat="40.56577" lon="45.17494">
        <ele>1931.986911</ele>
        <time>2021-10-22T08:28:00.265Z</time>
      </trkpt>
      <trkpt lat="40.56659" lon="45.17233">
        <ele>1930.582372</ele>
        <time>2021-10-22T08:28:53.242Z</time>
      </trkpt>
      <trkpt lat="40.56674" lon="45.16959">
        <ele>1925.80837</ele>
        <time>2021-10-22T08:29:33.253Z</time>
      </trkpt>
      <trkpt lat="40.56693" lon="45.16656">
        <ele>1924.481355</ele>
        <time>2021-10-22T08:30:27.253Z</time>
      </trkpt>
      <trkpt lat="40.56714" lon="45.16368">
        <ele>1926.628404</ele>
        <time>2021-10-22T08:31:08.296Z</time>
      </trkpt>
      <trkpt lat="40.56733" lon="45.16096">
        <ele>1928.0659</ele>
        <time>2021-10-22T08:31:48.264Z</time>
      </trkpt>
      <trkpt lat="40.56751" lon="45.15814">
        <ele>1928.188259</ele>
        <time>2021-10-22T08:32:33.264Z</time>
      </trkpt>
      <trkpt lat="40.56772" lon="45.15533">
        <ele>1932.675071</ele>
        <time>2021-10-22T08:33:50.311Z</time>
      </trkpt>
      <trkpt lat="40.56799" lon="45.15264">
        <ele>1936.442261</ele>
        <time>2021-10-22T08:35:04.253Z</time>
      </trkpt>
      <trkpt lat="40.56866" lon="45.14944">
        <ele>1938.463185</ele>
        <time>2021-10-22T08:36:04.299Z</time>
      </trkpt>
      <trkpt lat="40.56937" lon="45.14647">
        <ele>1936.158254</ele>
        <time>2021-10-22T08:36:56.260Z</time>
      </trkpt>
      <trkpt lat="40.57008" lon="45.14388">
        <ele>1934.387699</ele>
        <time>2021-10-22T08:37:37.252Z</time>
      </trkpt>
      <trkpt lat="40.57101" lon="45.14134">
        <ele>1930.135809</ele>
        <time>2021-10-22T08:38:17.257Z</time>
      </trkpt>
      <trkpt lat="40.57216" lon="45.1388">
        <ele>1928.359211</ele>
        <time>2021-10-22T08:38:57.310Z</time>
      </trkpt>
      <trkpt lat="40.57318" lon="45.13654">
        <ele>1930.116338</ele>
        <time>2021-10-22T08:39:51.274Z</time>
      </trkpt>
      <trkpt lat="40.57445" lon="45.13429">
        <ele>1929.76202</ele>
        <time>2021-10-22T08:40:49.253Z</time>
      </trkpt>
      <trkpt lat="40.57578" lon="45.13218">
        <ele>1926.89857</ele>
        <time>2021-10-22T08:41:29.274Z</time>
      </trkpt>
      <trkpt lat="40.57712" lon="45.13017">
        <ele>1928.026702</ele>
        <time>2021-10-22T08:42:12.264Z</time>
      </trkpt>
      <trkpt lat="40.57869" lon="45.12809">
        <ele>1926.475351</ele>
        <time>2021-10-22T08:43:02.262Z</time>
      </trkpt>
      <trkpt lat="40.58034" lon="45.12594">
        <ele>1925.864159</ele>
        <time>2021-10-22T08:43:54.253Z</time>
      </trkpt>
      <trkpt lat="40.58182" lon="45.12401">
        <ele>1925.604353</ele>
        <time>2021-10-22T08:44:38.264Z</time>
      </trkpt>
      <trkpt lat="40.58329" lon="45.12208">
        <ele>1923.430321</ele>
        <time>2021-10-22T08:45:18.259Z</time>
      </trkpt>
      <trkpt lat="40.58477" lon="45.12006">
        <ele>1925.045611</ele>
        <time>2021-10-22T08:45:58.258Z</time>
      </trkpt>
      <trkpt lat="40.58574" lon="45.11761">
        <ele>1929.123075</ele>
        <time>2021-10-22T08:46:38.252Z</time>
      </trkpt>
      <trkpt lat="40.58661" lon="45.11527">
        <ele>1929.408749</ele>
        <time>2021-10-22T08:47:19.276Z</time>
      </trkpt>
      <trkpt lat="40.58762" lon="45.11267">
        <ele>1934.905868</ele>
        <time>2021-10-22T08:48:14.257Z</time>
      </trkpt>
      <trkpt lat="40.5888" lon="45.11014">
        <ele>1940.349358</ele>
        <time>2021-10-22T08:48:54.286Z</time>
      </trkpt>
      <trkpt lat="40.58994" lon="45.10774">
        <ele>1944.761955</ele>
        <time>2021-10-22T08:49:56.295Z</time>
      </trkpt>
      <trkpt lat="40.59151" lon="45.10561">
        <ele>1940.785137</ele>
        <time>2021-10-22T08:50:55.263Z</time>
      </trkpt>
      <trkpt lat="40.59312" lon="45.10351">
        <ele>1937.028424</ele>
        <time>2021-10-22T08:51:38.264Z</time>
      </trkpt>
      <trkpt lat="40.59444" lon="45.10125">
        <ele>1936.983133</ele>
        <time>2021-10-22T08:52:26.263Z</time>
      </trkpt>
      <trkpt lat="40.59557" lon="45.09873">
        <ele>1931.987216</ele>
        <time>2021-10-22T08:53:08.258Z</time>
      </trkpt>
      <trkpt lat="40.5967" lon="45.09626">
        <ele>1926.960068</ele>
        <time>2021-10-22T08:53:55.239Z</time>
      </trkpt>
      <trkpt lat="40.59753" lon="45.0938">
        <ele>1926.605997</ele>
        <time>2021-10-22T08:54:40.252Z</time>
      </trkpt>
      <trkpt lat="40.59797" lon="45.09076">
        <ele>1928.713016</ele>
        <time>2021-10-22T08:55:40.266Z</time>
      </trkpt>
      <trkpt lat="40.59862" lon="45.08817">
        <ele>1937.946651</ele>
        <time>2021-10-22T08:56:41.245Z</time>
      </trkpt>
      <trkpt lat="40.59999" lon="45.08581">
        <ele>1936.396138</ele>
        <time>2021-10-22T08:57:21.260Z</time>
      </trkpt>
      <trkpt lat="40.60166" lon="45.08356">
        <ele>1927.857894</ele>
        <time>2021-10-22T08:58:01.265Z</time>
      </trkpt>
      <trkpt lat="40.60279" lon="45.08138">
        <ele>1928.177656</ele>
        <time>2021-10-22T08:58:45.277Z</time>
      </trkpt>
      <trkpt lat="40.60311" lon="45.07872">
        <ele>1933.755184</ele>
        <time>2021-10-22T08:59:27.267Z</time>
      </trkpt>
      <trkpt lat="40.60327" lon="45.07619">
        <ele>1930.989856</ele>
        <time>2021-10-22T09:00:07.269Z</time>
      </trkpt>
      <trkpt lat="40.60396" lon="45.07353">
        <ele>1927.265398</ele>
        <time>2021-10-22T09:00:56.257Z</time>
      </trkpt>
      <trkpt lat="40.60524" lon="45.07156">
        <ele>1930.003864</ele>
        <time>2021-10-22T09:01:38.261Z</time>
      </trkpt>
      <trkpt lat="40.60558" lon="45.0687">
        <ele>1930.915258</ele>
        <time>2021-10-22T09:02:25.265Z</time>
      </trkpt>
      <trkpt lat="40.60584" lon="45.06593">
        <ele>1930.054849</ele>
        <time>2021-10-22T09:03:12.266Z</time>
      </trkpt>
      <trkpt lat="40.6073" lon="45.06382">
        <ele>1929.868149</ele>
        <time>2021-10-22T09:03:59.259Z</time>
      </trkpt>
      <trkpt lat="40.60903" lon="45.06203">
        <ele>1931.07133</ele>
        <time>2021-10-22T09:04:50.267Z</time>
      </trkpt>
      <trkpt lat="40.61078" lon="45.05986">
        <ele>1936.15165</ele>
        <time>2021-10-22T09:05:50.311Z</time>
      </trkpt>
      <trkpt lat="40.611" lon="45.05689">
        <ele>1930.867497</ele>
        <time>2021-10-22T09:06:35.261Z</time>
      </trkpt>
      <trkpt lat="40.61113" lon="45.0541">
        <ele>1920.253614</ele>
        <time>2021-10-22T09:07:21.279Z</time>
      </trkpt>
      <trkpt lat="40.61168" lon="45.05117">
        <ele>1914.63646</ele>
        <time>2021-10-22T09:08:18.263Z</time>
      </trkpt>
      <trkpt lat="40.61189" lon="45.04854">
        <ele>1933.024427</ele>
        <time>2021-10-22T09:09:38.263Z</time>
      </trkpt>
      <trkpt lat="40.61241" lon="45.04585">
        <ele>1940.610277</ele>
        <time>2021-10-22T09:10:58.264Z</time>
      </trkpt>
      <trkpt lat="40.6132" lon="45.04336">
        <ele>1941.512967</ele>
        <time>2021-10-22T09:12:14.323Z</time>
      </trkpt>
      <trkpt lat="40.61401" lon="45.04082">
        <ele>1938.19833</ele>
        <time>2021-10-22T09:13:10.265Z</time>
      </trkpt>
      <trkpt lat="40.61488" lon="45.03832">
        <ele>1932.761781</ele>
        <time>2021-10-22T09:13:51.255Z</time>
      </trkpt>
      <trkpt lat="40.61653" lon="45.03572">
        <ele>1933.195387</ele>
        <time>2021-10-22T09:14:33.254Z</time>
      </trkpt>
      <trkpt lat="40.61793" lon="45.03366">
        <ele>1927.225861</ele>
        <time>2021-10-22T09:15:18.301Z</time>
      </trkpt>
      <trkpt lat="40.61937" lon="45.03119">
        <ele>1924.281422</ele>
        <time>2021-10-22T09:16:13.268Z</time>
      </trkpt>
      <trkpt lat="40.62032" lon="45.0287">
        <ele>1920.769438</ele>
        <time>2021-10-22T09:16:53.269Z</time>
      </trkpt>
      <trkpt lat="40.62105" lon="45.02611">
        <ele>1922.767441</ele>
        <time>2021-10-22T09:17:39.266Z</time>
      </trkpt>
      <trkpt lat="40.62173" lon="45.02307">
        <ele>1928.151873</ele>
        <time>2021-10-22T09:18:38.274Z</time>
      </trkpt>
      <trkpt lat="40.62204" lon="45.01992">
        <ele>1933.015864</ele>
        <time>2021-10-22T09:19:38.302Z</time>
      </trkpt>
      <trkpt lat="40.62228" lon="45.01718">
        <ele>1937.34707</ele>
        <time>2021-10-22T09:20:44.266Z</time>
      </trkpt>
      <trkpt lat="40.62305" lon="45.01465">
        <ele>1939.121867</ele>
        <time>2021-10-22T09:21:35.301Z</time>
      </trkpt>
      <trkpt lat="40.62422" lon="45.0125">
        <ele>1932.66332</ele>
        <time>2021-10-22T09:22:15.277Z</time>
      </trkpt>
      <trkpt lat="40.62564" lon="45.01034">
        <ele>1931.11709</ele>
        <time>2021-10-22T09:22:55.266Z</time>
      </trkpt>
      <trkpt lat="40.62674" lon="45.00798">
        <ele>1938.405224</ele>
        <time>2021-10-22T09:44:16.274Z</time>
      </trkpt>
      <trkpt lat="40.62749" lon="45.00524">
        <ele>1940.899239</ele>
        <time>2021-10-22T09:45:04.281Z</time>
      </trkpt>
      <trkpt lat="40.6283" lon="45.0023">
        <ele>1939.998094</ele>
        <time>2021-10-22T09:46:00.283Z</time>
      </trkpt>
      <trkpt lat="40.62966" lon="44.99981">
        <ele>1944.930153</ele>
        <time>2021-10-22T09:47:00.258Z</time>
      </trkpt>
      <trkpt lat="40.63057" lon="44.99742">
        <ele>1950.976257</ele>
        <time>2021-10-22T09:47:46.264Z</time>
      </trkpt>
      <trkpt lat="40.63084" lon="44.99464">
        <ele>1952.636118</ele>
        <time>2021-10-22T09:48:26.267Z</time>
      </trkpt>
      <trkpt lat="40.63136" lon="44.99197">
        <ele>1945.224618</ele>
        <time>2021-10-22T09:49:06.270Z</time>
      </trkpt>
      <trkpt lat="40.63202" lon="44.98944">
        <ele>1940.83963</ele>
        <time>2021-10-22T09:49:46.280Z</time>
      </trkpt>
      <trkpt lat="40.6326" lon="44.98675">
        <ele>1941.611028</ele>
        <time>2021-10-22T09:50:26.259Z</time>
      </trkpt>
      <trkpt lat="40.63226" lon="44.98406">
        <ele>1949.673864</ele>
        <time>2021-10-22T09:51:06.271Z</time>
      </trkpt>
      <trkpt lat="40.63145" lon="44.98121">
        <ele>1960.728493</ele>
        <time>2021-10-22T09:52:04.255Z</time>
      </trkpt>
      <trkpt lat="40.63005" lon="44.9786">
        <ele>1956.069366</ele>
        <time>2021-10-22T09:53:02.255Z</time>
      </trkpt>
      <trkpt lat="40.62859" lon="44.97593">
        <ele>1953.277651</ele>
        <time>2021-10-22T09:54:02.273Z</time>
      </trkpt>
      <trkpt lat="40.62699" lon="44.97331">
        <ele>1960.05551</ele>
        <time>2021-10-22T09:55:02.293Z</time>
      </trkpt>
      <trkpt lat="40.62551" lon="44.97111">
        <ele>1957.412663</ele>
        <time>2021-10-22T09:55:53.261Z</time>
      </trkpt>
      <trkpt lat="40.62408" lon="44.96921">
        <ele>1956.588981</ele>
        <time>2021-10-22T09:56:36.257Z</time>
      </trkpt>
      <trkpt lat="40.62258" lon="44.96727">
        <ele>1958.685811</ele>
        <time>2021-10-22T09:57:22.275Z</time>
      </trkpt>
      <trkpt lat="40.62103" lon="44.9652">
        <ele>1956.082423</ele>
        <time>2021-10-22T09:58:11.261Z</time>
      </trkpt>
      <trkpt lat="40.61945" lon="44.96361">
        <ele>1948.82459</ele>
        <time>2021-10-22T09:58:55.263Z</time>
      </trkpt>
      <trkpt lat="40.61775" lon="44.96214">
        <ele>1944.333124</ele>
        <time>2021-10-22T09:59:40.269Z</time>
      </trkpt>
      <trkpt lat="40.61609" lon="44.96069">
        <ele>1941.756796</ele>
        <time>2021-10-22T10:00:23.275Z</time>
      </trkpt>
      <trkpt lat="40.6143" lon="44.95911">
        <ele>1941.38521</ele>
        <time>2021-10-22T10:01:23.276Z</time>
      </trkpt>
      <trkpt lat="40.61237" lon="44.95741">
        <ele>1942.73108</ele>
        <time>2021-10-22T10:02:23.258Z</time>
      </trkpt>
      <trkpt lat="40.6105" lon="44.95578">
        <ele>1943.972876</ele>
        <time>2021-10-22T10:03:22.256Z</time>
      </trkpt>
      <trkpt lat="40.60914" lon="44.95459">
        <ele>1949.192654</ele>
        <time>2021-10-22T10:22:19.281Z</time>
      </trkpt>
      <trkpt lat="40.60683" lon="44.9552">
        <ele>1955.229143</ele>
        <time>2021-10-22T10:23:22.279Z</time>
      </trkpt>
      <trkpt lat="40.6045" lon="44.95589">
        <ele>1961.597017</ele>
        <time>2021-10-22T10:24:22.278Z</time>
      </trkpt>
      <trkpt lat="40.60233" lon="44.9569">
        <ele>1967.028739</ele>
        <time>2021-10-22T10:25:22.291Z</time>
      </trkpt>
      <trkpt lat="40.60063" lon="44.95901">
        <ele>1955.911994</ele>
        <time>2021-10-22T10:26:11.276Z</time>
      </trkpt>
      <trkpt lat="40.59912" lon="44.96177">
        <ele>1940.936738</ele>
        <time>2021-10-22T10:26:51.270Z</time>
      </trkpt>
      <trkpt lat="40.59747" lon="44.96424">
        <ele>1941.262521</ele>
        <time>2021-10-22T10:27:21.279Z</time>
      </trkpt>
      <trkpt lat="40.59559" lon="44.96603">
        <ele>1954.151076</ele>
        <time>2021-10-22T10:28:06.297Z</time>
      </trkpt>
      <trkpt lat="40.5933" lon="44.96679">
        <ele>1953.092671</ele>
        <time>2021-10-22T10:28:59.255Z</time>
      </trkpt>
      <trkpt lat="40.59118" lon="44.9676">
        <ele>1950.820971</ele>
        <time>2021-10-22T10:29:44.258Z</time>
      </trkpt>
      <trkpt lat="40.58918" lon="44.96939">
        <ele>1951.821186</ele>
        <time>2021-10-22T10:30:39.290Z</time>
      </trkpt>
      <trkpt lat="40.58745" lon="44.97119">
        <ele>1949.32166</ele>
        <time>2021-10-22T10:31:19.285Z</time>
      </trkpt>
      <trkpt lat="40.58621" lon="44.97346">
        <ele>1941.049386</ele>
        <time>2021-10-22T10:31:59.287Z</time>
      </trkpt>
      <trkpt lat="40.585" lon="44.97561">
        <ele>1935.240303</ele>
        <time>2021-10-22T10:32:42.305Z</time>
      </trkpt>
      <trkpt lat="40.58402" lon="44.97831">
        <ele>1931.888245</ele>
        <time>2021-10-22T10:33:33.275Z</time>
      </trkpt>
      <trkpt lat="40.58327" lon="44.98088">
        <ele>1930.496174</ele>
        <time>2021-10-22T10:34:17.258Z</time>
      </trkpt>
      <trkpt lat="40.58244" lon="44.98379">
        <ele>1934.848763</ele>
        <time>2021-10-22T10:35:17.317Z</time>
      </trkpt>
      <trkpt lat="40.58143" lon="44.98634">
        <ele>1933.986033</ele>
        <time>2021-10-22T10:36:04.258Z</time>
      </trkpt>
      <trkpt lat="40.58045" lon="44.98872">
        <ele>1934.380461</ele>
        <time>2021-10-22T10:36:44.266Z</time>
      </trkpt>
      <trkpt lat="40.57942" lon="44.99117">
        <ele>1935.414117</ele>
        <time>2021-10-22T10:37:29.259Z</time>
      </trkpt>
      <trkpt lat="40.57838" lon="44.9937">
        <ele>1932.996563</ele>
        <time>2021-10-22T10:38:14.263Z</time>
      </trkpt>
      <trkpt lat="40.57667" lon="44.9958">
        <ele>1932.217233</ele>
        <time>2021-10-22T10:38:54.257Z</time>
      </trkpt>
      <trkpt lat="40.57467" lon="44.99701">
        <ele>1938.817438</ele>
        <time>2021-10-22T10:39:34.256Z</time>
      </trkpt>
      <trkpt lat="40.57275" lon="44.99798">
        <ele>1948.581326</ele>
        <time>2021-10-22T10:40:17.319Z</time>
      </trkpt>
      <trkpt lat="40.57055" lon="44.99855">
        <ele>1955.991143</ele>
        <time>2021-10-22T10:41:02.250Z</time>
      </trkpt>
      <trkpt lat="40.56838" lon="44.99894">
        <ele>1951.1755</ele>
        <time>2021-10-22T10:42:11.297Z</time>
      </trkpt>
      <trkpt lat="40.5663" lon="44.99769">
        <ele>1943.479403</ele>
        <time>2021-10-22T10:43:06.279Z</time>
      </trkpt>
      <trkpt lat="40.56477" lon="44.99613">
        <ele>1935.730032</ele>
        <time>2021-10-22T10:43:46.277Z</time>
      </trkpt>
      <trkpt lat="40.56291" lon="44.99423">
        <ele>1936.899922</ele>
        <time>2021-10-22T10:44:41.310Z</time>
      </trkpt>
      <trkpt lat="40.56108" lon="44.99268">
        <ele>1938.971834</ele>
        <time>2021-10-22T10:45:40.290Z</time>
      </trkpt>
      <trkpt lat="40.55969" lon="44.99185">
        <ele>1939.543379</ele>
        <time>2021-10-22T10:47:16.283Z</time>
      </trkpt>
      <trkpt lat="40.56166" lon="44.99338">
        <ele>1943.830118</ele>
        <time>2021-10-22T10:48:16.268Z</time>
      </trkpt>
      <trkpt lat="40.56159" lon="44.99382">
        <ele>1943.830118</ele>
        <time>2021-10-22T10:55:09.077Z</time>
      </trkpt>
    </trkseg>
  </trk>
</gpx>